Latest Coastal Weather Observations for Mandora

IDW60701

Issued at 7:42 pm WST Monday 6 July 2015 (issued every 10 minutes, with the page automatically refreshed every 10 minutes)

About coastal observations | Map of coastal stations | Coastal observations for WA | Marine services | Other Formats
Station Details ID: 004019 Name: MANDORA Lat: -19.74 Lon: 120.84 Height: 7.5 m
Data from the previous 72 hours. | See also: Recent months at Mandora
Date/Time
WST
Temp

°C
Wind Pressure Rain
since 9am
mm
Weather Cloud Vis
km
Sea
Height
m
Swell
Dir
 
Speed
knots
Gust
knots
hPa Trend Height
m
Period
s
Dir
06/07:30pm 16.5 SW 5 6 1015.1 - 0.0 - - - - - - -
06/07:00pm 17.5 SW 4 6 1014.9 - 0.0 - - - - - - -
06/06:30pm 18.6 WSW 5 6 1014.7 - 0.0 - - - - - - -
06/06:00pm 20.5 W 2 5 1014.4 - 0.0 - - - - - - -
06/05:30pm 22.2 WSW 3 5 1014.1 - 0.0 - - - - - - -
06/05:00pm 25.8 N 1 3 1013.9 - 0.0 - - - - - - -
06/04:30pm 28.3 E 6 11 1013.8 - 0.0 - - - - - - -
06/04:00pm 28.7 E 7 10 1013.7 - 0.0 - - - - - - -
06/03:30pm 28.8 E 8 14 1013.7 - 0.0 - - - - - - -
06/03:00pm 29.1 E 8 13 1013.8 - 0.0 - - - - - - -
06/02:30pm 29.2 ESE 7 12 1013.9 - 0.0 - - - - - - -
06/02:00pm 29.1 ENE 8 14 1014.2 - 0.0 - - - - - - -
06/01:30pm 29.3 E 7 14 1014.6 - 0.0 - - - - - - -
06/01:00pm 28.7 E 8 14 1014.8 - 0.0 - - - - - - -
06/12:30pm 27.7 ESE 12 21 1015.3 - 0.0 - - - - - - -
06/12:00pm 28.2 E 10 17 1015.8 - 0.0 - - - - - - -
06/11:30am 27.7 E 11 19 1016.4 - 0.0 - - - - - - -
06/11:00am 26.9 E 11 17 1016.9 - 0.0 - - - - - - -
06/10:30am 25.7 E 11 17 1017.4 - 0.0 - - - - - - -
06/10:00am 25.8 E 9 15 1017.7 - 0.0 - - - - - - -
06/09:30am 24.2 E 9 14 1017.6 - 0.0 - - - - - - -
06/09:00am 22.7 E 8 13 1017.7 - 0.0 - - - - - - -
06/08:30am 19.9 ESE 9 14 1017.5 - 0.0 - - - - - - -
06/08:00am 17.0 SE 9 13 1017.3 - 0.0 - - - - - - -
06/07:30am 13.6 SE 6 9 1017.0 - 0.0 - - - - - - -
06/07:00am 10.9 SSE 6 7 1016.7 - 0.0 - - - - - - -
06/06:30am 8.7 SE 5 7 1016.4 - 0.0 - - - - - - -
06/06:00am 8.0 SE 5 7 1016.1 - 0.0 - - - - - - -
06/05:30am 8.4 SE 5 7 1015.9 - 0.0 - - - - - - -
06/05:00am 6.7 SSE 4 6 1015.9 - 0.0 - - - - - - -
06/04:30am 7.7 SE 5 6 1015.7 - 0.0 - - - - - - -
06/04:00am 7.4 SSE 5 6 1015.7 - 0.0 - - - - - - -
06/03:30am 9.3 SE 5 6 1015.7 - 0.0 - - - - - - -
06/03:00am 10.7 SE 5 6 1015.8 - 0.0 - - - - - - -
06/02:30am 11.4 SE 5 6 1015.8 - 0.0 - - - - - - -
06/02:00am 11.8 SSE 5 6 1016.0 - 0.0 - - - - - - -
06/01:30am 12.3 SSE 5 7 1016.2 - 0.0 - - - - - - -
06/01:00am 12.6 SSE 6 7 1016.4 - 0.0 - - - - - - -
06/12:30am 10.9 SSE 6 7 1016.5 - 0.0 - - - - - - -
06/12:00am 10.3 SSE 5 8 1016.5 - 0.0 - - - - - - -
 
Date/Time
WST
Temp

°C
Wind Pressure Rain
since 9am
mm
Weather Cloud Vis
km
Sea
Height
m
Swell
Dir
 
Speed
knots
Gust
knots
hPa Trend Height
m
Period
s
Dir
05/11:30pm 10.9 ESE 4 5 1016.3 - 0.0 - - - - - - -
05/11:00pm 13.5 SE 5 7 1016.3 - 0.0 - - - - - - -
05/10:30pm 11.6 SE 6 7 1016.3 - 0.0 - - - - - - -
05/10:00pm 10.5 SE 5 6 1016.4 - 0.0 - - - - - - -
05/09:30pm 11.6 SSE 4 6 1016.5 - 0.0 - - - - - - -
05/09:00pm 14.4 ESE 4 5 1016.6 - 0.0 - - - - - - -
05/08:30pm 16.5 SE 5 7 1016.6 - 0.0 - - - - - - -
05/08:00pm 17.0 SE 5 7 1016.5 - 0.0 - - - - - - -
05/07:30pm 14.6 SSE 6 7 1016.2 - 0.0 - - - - - - -
05/07:00pm 16.0 SSE 4 5 1015.9 - 0.0 - - - - - - -
05/06:30pm 17.5 S 5 6 1015.6 - 0.0 - - - - - - -
05/06:00pm 19.4 ESE 4 4 1015.2 - 0.0 - - - - - - -
05/05:30pm 23.8 E 4 5 1015.1 - 0.0 - - - - - - -
05/05:00pm 26.8 E 5 8 1015.0 - 0.0 - - - - - - -
05/04:30pm 28.0 E 6 9 1014.9 - 0.0 - - - - - - -
05/04:00pm 27.7 SE 6 11 1014.9 - 0.0 - - - - - - -
05/03:30pm 28.4 ESE 8 14 1014.9 - 0.0 - - - - - - -
05/03:00pm 28.9 E 7 12 1015.0 - 0.0 - - - - - - -
05/02:30pm 29.0 ESE 8 14 1015.2 - 0.0 - - - - - - -
05/02:00pm 28.7 E 7 11 1015.6 - 0.0 - - - - - - -
05/01:30pm 28.0 E 8 14 1015.9 - 0.0 - - - - - - -
05/01:00pm 28.4 E 8 16 1016.3 - 0.0 - - - - - - -
05/12:30pm 27.5 SE 10 15 1016.9 - 0.0 - - - - - - -
05/12:00pm 27.8 E 9 14 1017.5 - 0.0 - - - - - - -
05/11:30am 27.2 E 10 16 1017.9 - 0.0 - - - - - - -
05/11:00am 26.7 E 11 16 1018.5 - 0.0 - - - - - - -
05/10:30am 26.5 E 9 16 1018.9 - 0.0 - - - - - - -
05/10:00am 25.1 E 11 17 1019.3 - 0.0 - - - - - - -
05/09:30am 24.4 E 8 15 1019.6 - 0.0 - - - - - - -
05/09:00am 22.2 E 9 15 1019.6 - 0.0 - - - - - - -
05/08:30am 19.8 ESE 8 12 1019.4 - 0.0 - - - - - - -
05/08:00am 17.0 SE 7 11 1019.0 - 0.0 - - - - - - -
05/07:30am 13.7 SE 6 9 1018.7 - 0.0 - - - - - - -
05/07:00am 11.2 SSE 5 7 1018.3 - 0.0 - - - - - - -
05/06:30am 11.0 SE 5 7 1018.1 - 0.0 - - - - - - -
05/06:00am 10.8 SSE 5 7 1017.8 - 0.0 - - - - - - -
05/05:30am 10.6 SSE 5 6 1017.6 - 0.0 - - - - - - -
05/05:00am 11.3 SSE 5 6 1017.3 - 0.0 - - - - - - -
05/04:30am 12.5 SSE 6 7 1017.2 - 0.0 - - - - - - -
05/04:00am 11.9 SE 5 6 1017.1 - 0.0 - - - - - - -
05/03:30am 12.5 SE 5 7 1017.0 - 0.0 - - - - - - -
05/03:00am 12.3 SE 5 7 1017.1 - 0.0 - - - - - - -
05/02:30am 9.5 SSE 5 6 1017.2 - 0.0 - - - - - - -
05/02:00am 11.9 ESE 4 6 1017.2 - 0.0 - - - - - - -
05/01:30am 14.9 ESE 5 7 1017.2 - 0.0 - - - - - - -
05/01:00am 14.5 SSE 6 7 1017.2 - 0.0 - - - - - - -
05/12:30am 14.8 SSE 6 9 1017.2 - 0.0 - - - - - - -
05/12:00am 15.1 SSE 6 9 1017.2 - 0.0 - - - - - - -
 
Date/Time
WST
Temp

°C
Wind Pressure Rain
since 9am
mm
Weather Cloud Vis
km
Sea
Height
m
Swell
Dir
 
Speed
knots
Gust
knots
hPa Trend Height
m
Period
s
Dir
04/11:30pm 15.3 SSE 6 9 1017.2 - 0.0 - - - - - - -
04/11:00pm 15.4 SSE 7 9 1017.4 - 0.0 - - - - - - -
04/10:30pm 16.1 SSE 7 9 1017.4 - 0.0 - - - - - - -
04/10:00pm 16.4 SSE 7 9 1017.5 - 0.0 - - - - - - -
04/09:30pm 17.2 SSE 6 9 1017.5 - 0.0 - - - - - - -
04/09:00pm 17.4 SSE 7 9 1017.1 - 0.0 - - - - - - -
04/08:30pm 18.5 SSE 7 10 1017.0 - 0.0 - - - - - - -
04/08:00pm 19.2 SSE 7 9 1016.7 - 0.0 - - - - - - -
04/07:30pm 20.1 SE 5 6 1016.5 - 0.0 - - - - - - -
04/07:00pm 21.4 SSE 6 8 1016.3 - 0.0 - - - - - - -
04/06:30pm 22.5 SSE 6 8 1016.0 - 0.0 - - - - - - -
04/06:00pm 23.5 SSE 7 8 1015.7 - 0.0 - - - - - - -
04/05:30pm 25.7 SSE 7 9 1015.4 - 0.0 - - - - - - -
04/05:00pm 27.7 SSE 7 10 1015.3 - 0.0 - - - - - - -
04/04:30pm 28.6 SSE 9 15 1015.1 - 0.0 - - - - - - -
04/04:00pm 29.3 SE 8 13 1015.1 - 0.0 - - - - - - -
04/03:30pm 29.7 SE 7 12 1015.2 - 0.0 - - - - - - -
04/03:00pm 29.9 SSE 7 11 1015.2 - 0.0 - - - - - - -
04/02:30pm 30.2 ESE 8 14 1015.3 - 0.0 - - - - - - -
04/02:00pm 30.5 ESE 6 13 1015.5 - 0.0 - - - - - - -
04/01:30pm 30.0 ESE 8 14 1015.9 - 0.0 - - - - - - -
04/01:00pm 29.6 E 9 14 1016.4 - 0.0 - - - - - - -
04/12:30pm 29.2 E 9 16 1016.9 - 0.0 - - - - - - -
04/12:00pm 28.8 E 10 19 1017.4 - 0.0 - - - - - - -
04/11:30am 28.5 E 10 17 1017.9 - 0.0 - - - - - - -
04/11:00am 28.1 E 11 18 1018.3 - 0.0 - - - - - - -
04/10:30am 27.5 E 10 18 1018.8 - 0.0 - - - - - - -
04/10:00am 26.4 ESE 11 18 1019.1 - 0.0 - - - - - - -
04/09:30am 25.4 E 10 16 1019.3 - 0.0 - - - - - - -
04/09:00am 23.9 ESE 9 15 1019.5 - 0.0 - - - - - - -
04/08:30am 21.5 ESE 9 16 1019.5 - 0.0 - - - - - - -
04/08:00am 19.6 ESE 8 11 1019.4 - 0.0 - - - - - - -
04/07:30am 18.1 SE 8 11 1018.9 - 0.0 - - - - - - -
04/07:00am 17.2 SE 7 12 1018.5 - 0.0 - - - - - - -
04/06:30am 16.9 SSE 7 10 1018.2 - 0.0 - - - - - - -
04/06:00am 16.3 SSE 7 11 1017.8 - 0.0 - - - - - - -
04/05:30am 16.1 SSE 6 8 1017.7 - 0.0 - - - - - - -
04/05:00am 15.9 SSE 6 10 1017.6 - 0.0 - - - - - - -
04/04:30am 15.5 SSE 6 8 1017.5 - 0.0 - - - - - - -
04/04:00am 15.5 SSE 7 9 1017.4 - 0.0 - - - - - - -
04/03:30am 15.9 SSE 7 9 1017.5 - 0.0 - - - - - - -
04/03:00am 16.7 SSE 7 8 1017.6 - 0.0 - - - - - - -
04/02:30am 17.9 SSE 7 10 1017.6 - 0.0 - - - - - - -
04/02:00am 18.5 SSE 6 11 1017.6 - 0.0 - - - - - - -
04/01:30am 19.2 SSE 7 10 1017.7 - 0.0 - - - - - - -
04/01:00am 19.4 SSE 8 12 1017.8 - 0.0 - - - - - - -
04/12:30am 19.1 SSE 8 10 1017.8 - 0.0 - - - - - - -
04/12:00am 18.8 SSE 8 11 1017.8 - 0.0 - - - - - - -
 
Date/Time
WST
Temp

°C
Wind Pressure Rain
since 9am
mm
Weather Cloud Vis
km
Sea
Height
m
Swell
Dir
 
Speed
knots
Gust
knots
hPa Trend Height
m
Period
s
Dir
03/11:30pm 19.3 SSE 7 10 1017.8 - 0.0 - - - - - - -
03/11:00pm 19.9 SSE 7 9 1017.9 - 0.0 - - - - - - -
03/10:30pm 20.2 SSE 8 11 1018.1 - 0.0 - - - - - - -
03/10:00pm 19.8 SSE 8 11 1018.1 - 0.0 - - - - - - -
03/09:30pm 19.7 S 7 9 1018.0 - 0.0 - - - - - - -
03/09:00pm 20.8 S 8 11 1018.0 - 0.0 - - - - - - -
03/08:30pm 21.1 SSE 9 11 1017.9 - 0.0 - - - - - - -
03/08:00pm 21.5 S 8 10 1017.9 - 0.0 - - - - - - -

Other Formats:

Comma delimited format used in spreadsheet applications
http://www.bom.gov.au/fwo/IDW60701/IDW60701.94200.axf

JavaScript Object Notation format (JSON) in row-major order
http://www.bom.gov.au/fwo/IDW60701/IDW60701.94200.json